Time;durP1;ratioP1;P1;durP2;ratioP2;P2;SDS_P1;SDS_P2;PMS_P1;PMS_P2;Temp;Humidity;BMP_temperature;BMP_pressure;BME280_temperature;BME280_humidity;BME280_pressure;Samples;Min_cycle;Max_cycle;Signal;HPM_P1;HPM_P2
2021/05/22 00:00:58;;;;;;;5.70;3.47;;;;;;;;;;5090880;28;20356;-79
2021/05/22 00:03:24;;;;;;;8.02;3.33;;;;;;;;;;5104301;28;20381;-79
2021/05/22 00:05:55;;;;;;;6.43;3.50;;;;;;;;;;5092469;28;20355;-84
2021/05/22 00:08:21;;;;;;;5.68;3.33;;;;;;;;;;5110252;28;20398;-81
2021/05/22 00:10:47;;;;;;;6.30;3.70;;;;;;;;;;5092060;28;20840;-85
2021/05/22 00:13:15;;;;;;;4.35;3.50;;;;;;;;;;5110289;28;20732;-84
2021/05/22 00:15:41;;;;;;;7.38;3.92;;;;;;;;;;5113572;27;20379;-86
2021/05/22 00:18:07;;;;;;;6.38;3.95;;;;;;;;;;5129805;27;20708;-83
2021/05/22 00:20:35;;;;;;;6.47;4.03;;;;;;;;;;5122686;27;20476;-83
2021/05/22 00:23:01;;;;;;;6.05;3.80;;;;;;;;;;5131449;27;20865;-86
2021/05/22 00:25:27;;;;;;;5.65;4.00;;;;;;;;;;5078268;28;20365;-82
2021/05/22 00:27:53;;;;;;;5.13;3.70;;;;;;;;;;5089761;28;20368;-82
2021/05/22 00:30:19;;;;;;;5.60;3.90;;;;;;;;;;5089966;28;20403;-81
2021/05/22 00:32:45;;;;;;;5.93;4.28;;;;;;;;;;5072679;28;20360;-79
2021/05/22 00:35:11;;;;;;;6.13;4.20;;;;;;;;;;5072914;28;20885;-87
2021/05/22 00:37:37;;;;;;;4.43;3.85;;;;;;;;;;5090932;28;20376;-84
2021/05/22 00:40:05;;;;;;;4.93;3.95;;;;;;;;;;5091052;28;20365;-84
2021/05/22 00:42:33;;;;;;;8.85;3.78;;;;;;;;;;5080777;28;20389;-83
2021/05/22 00:45:11;;;;;;;5.28;4.32;;;;;;;;;;5083803;28;20764;-84
2021/05/22 00:47:38;;;;;;;8.73;4.30;;;;;;;;;;5108219;28;20362;-84
2021/05/22 00:50:06;;;;;;;4.43;3.83;;;;;;;;;;5110493;28;20414;-85
2021/05/22 00:52:32;;;;;;;5.32;3.95;;;;;;;;;;5110457;28;20697;-79
2021/05/22 00:54:58;;;;;;;5.82;3.90;;;;;;;;;;5092045;28;20736;-83
2021/05/22 00:57:24;;;;;;;5.37;4.07;;;;;;;;;;5110210;28;20466;-80
2021/05/22 00:59:51;;;;;;;8.10;3.97;;;;;;;;;;5110237;28;20449;-82
2021/05/22 01:02:24;;;;;;;6.82;4.00;;;;;;;;;;5091297;28;20753;-80
2021/05/22 01:04:50;;;;;;;6.22;4.10;;;;;;;;;;5110330;28;20458;-80
2021/05/22 01:07:17;;;;;;;5.15;4.07;;;;;;;;;;5092055;28;20375;-85
2021/05/22 01:09:43;;;;;;;5.22;3.72;;;;;;;;;;5091866;28;20375;-85
2021/05/22 01:12:10;;;;;;;6.03;3.70;;;;;;;;;;5110739;28;20406;-86
2021/05/22 01:14:39;;;;;;;6.75;3.95;;;;;;;;;;5110470;28;20362;-83
2021/05/22 01:17:05;;;;;;;5.80;4.00;;;;;;;;;;5092345;28;20912;-80
2021/05/22 01:19:55;;;;;;;6.28;3.88;;;;;;;;;;5110465;28;20470;-82
2021/05/22 01:22:21;;;;;;;6.32;4.25;;;;;;;;;;5092118;28;20389;-84
2021/05/22 01:24:48;;;;;;;5.93;4.20;;;;;;;;;;5091731;28;20377;-82
2021/05/22 01:27:15;;;;;;;7.30;4.28;;;;;;;;;;5109617;28;20374;-81
2021/05/22 01:29:41;;;;;;;6.00;4.10;;;;;;;;;;5110408;28;20363;-82
2021/05/22 01:32:08;;;;;;;6.70;4.50;;;;;;;;;;5109762;28;20478;-80
2021/05/22 01:34:35;;;;;;;6.07;4.10;;;;;;;;;;5109685;28;20358;-82
2021/05/22 01:37:01;;;;;;;5.22;4.45;;;;;;;;;;5109730;28;20366;-83
2021/05/22 01:39:27;;;;;;;8.18;4.45;;;;;;;;;;5109993;28;20910;-87
2021/05/22 01:41:53;;;;;;;8.23;5.00;;;;;;;;;;5110101;28;20371;-82
2021/05/22 01:44:19;;;;;;;9.00;7.28;;;;;;;;;;5109645;28;20363;-82
2021/05/22 01:46:47;;;;;;;12.57;8.97;;;;;;;;;;5109662;28;20366;-80
2021/05/22 01:49:13;;;;;;;12.00;9.35;;;;;;;;;;5109751;28;20468;-86
2021/05/22 01:51:41;;;;;;;12.15;10.75;;;;;;;;;;5110323;28;20395;-78
2021/05/22 01:54:10;;;;;;;11.32;8.02;;;;;;;;;;5091988;28;20375;-82
2021/05/22 01:56:36;;;;;;;9.15;6.78;;;;;;;;;;5110070;28;20390;-86
2021/05/22 01:59:03;;;;;;;9.60;6.50;;;;;;;;;;5110777;28;20459;-86
2021/05/22 02:01:29;;;;;;;9.57;6.05;;;;;;;;;;5110235;28;20366;-83
2021/05/22 02:03:57;;;;;;;8.40;5.30;;;;;;;;;;5109967;28;20371;-88
2021/05/22 02:06:27;;;;;;;9.18;5.50;;;;;;;;;;5092187;28;20387;-83
2021/05/22 02:08:55;;;;;;;10.00;5.35;;;;;;;;;;5091628;28;20860;-84
2021/05/22 02:11:21;;;;;;;8.48;5.00;;;;;;;;;;5109910;28;20401;-85
2021/05/22 02:13:48;;;;;;;6.35;5.03;;;;;;;;;;5110364;28;20406;-86
2021/05/22 02:16:16;;;;;;;6.65;5.00;;;;;;;;;;5109434;28;21157;-82
2021/05/22 02:18:42;;;;;;;7.53;4.70;;;;;;;;;;5091229;28;20892;-84
2021/05/22 02:21:09;;;;;;;6.68;5.22;;;;;;;;;;5109538;28;20394;-83
2021/05/22 02:23:39;;;;;;;9.63;5.05;;;;;;;;;;5091622;28;20420;-88
2021/05/22 02:26:07;;;;;;;8.25;4.75;;;;;;;;;;5109710;28;20367;-84
2021/05/22 02:28:33;;;;;;;7.53;5.00;;;;;;;;;;5109451;28;20702;-82
2021/05/22 02:30:59;;;;;;;8.97;5.03;;;;;;;;;;5109621;28;20802;-80
2021/05/22 02:33:26;;;;;;;10.27;4.93;;;;;;;;;;5091171;28;20478;-85
2021/05/22 02:35:53;;;;;;;9.67;5.07;;;;;;;;;;5109623;28;20377;-82
2021/05/22 02:38:39;;;;;;;8.75;4.50;;;;;;;;;;5109058;28;20378;-84
2021/05/22 02:41:06;;;;;;;8.32;4.90;;;;;;;;;;5090871;28;20378;-83
2021/05/22 02:43:33;;;;;;;9.05;4.68;;;;;;;;;;5091179;28;20407;-82
2021/05/22 02:46:00;;;;;;;7.80;5.38;;;;;;;;;;5109422;28;20399;-79
2021/05/22 02:48:26;;;;;;;8.88;5.07;;;;;;;;;;5109539;28;20404;-81
2021/05/22 02:50:52;;;;;;;8.00;4.70;;;;;;;;;;5108949;28;20394;-83
2021/05/22 02:53:22;;;;;;;8.23;5.18;;;;;;;;;;5108603;28;20366;-87
2021/05/22 02:55:49;;;;;;;8.05;5.15;;;;;;;;;;5109717;28;20375;-80
2021/05/22 02:58:16;;;;;;;7.07;4.70;;;;;;;;;;5112812;28;20377;-82
2021/05/22 03:00:42;;;;;;;8.82;5.15;;;;;;;;;;5113087;28;20363;-84
2021/05/22 03:03:08;;;;;;;8.63;4.90;;;;;;;;;;5112675;28;20879;-82
2021/05/22 03:05:34;;;;;;;7.03;4.85;;;;;;;;;;5112691;28;20371;-84
2021/05/22 03:08:01;;;;;;;9.40;4.70;;;;;;;;;;5112653;28;20883;-84
2021/05/22 03:10:27;;;;;;;7.50;4.45;;;;;;;;;;5112437;28;20390;-83
2021/05/22 03:12:53;;;;;;;7.55;4.45;;;;;;;;;;5112367;28;20922;-82
2021/05/22 03:15:19;;;;;;;8.23;4.45;;;;;;;;;;5094299;28;20390;-86
2021/05/22 03:17:45;;;;;;;8.45;4.45;;;;;;;;;;5112774;28;20436;-84
2021/05/22 03:20:11;;;;;;;11.60;4.40;;;;;;;;;;5094324;28;20391;-84
2021/05/22 03:22:37;;;;;;;7.68;4.30;;;;;;;;;;5113156;28;20371;-85
2021/05/22 03:25:04;;;;;;;6.82;4.22;;;;;;;;;;5113936;28;20374;-83
2021/05/22 03:27:30;;;;;;;6.97;3.60;;;;;;;;;;5113279;28;20694;-82
2021/05/22 03:29:57;;;;;;;10.63;4.07;;;;;;;;;;5113229;28;20879;-85
2021/05/22 03:32:23;;;;;;;8.63;4.43;;;;;;;;;;5094755;28;20378;-84
2021/05/22 03:34:49;;;;;;;7.00;3.60;;;;;;;;;;5094515;28;20379;-86
2021/05/22 03:37:15;;;;;;;5.40;3.60;;;;;;;;;;5112197;28;20379;-84
2021/05/22 03:39:41;;;;;;;7.40;4.10;;;;;;;;;;5112534;28;20374;-80
2021/05/22 03:42:07;;;;;;;9.38;3.97;;;;;;;;;;5094382;28;20371;-81
2021/05/22 03:44:33;;;;;;;7.03;3.90;;;;;;;;;;5085841;28;20371;-81
2021/05/22 03:46:59;;;;;;;6.35;3.60;;;;;;;;;;5112811;28;20423;-81
2021/05/22 03:49:28;;;;;;;6.43;3.90;;;;;;;;;;5112523;28;20378;-80
2021/05/22 03:51:54;;;;;;;8.23;3.78;;;;;;;;;;5112399;28;20394;-80
2021/05/22 03:54:20;;;;;;;5.78;3.20;;;;;;;;;;5093892;28;20410;-82
2021/05/22 03:56:45;;;;;;;6.18;3.15;;;;;;;;;;5094268;28;20382;-82
2021/05/22 03:59:11;;;;;;;5.45;3.60;;;;;;;;;;5112704;28;20402;-82
2021/05/22 04:01:37;;;;;;;6.30;3.20;;;;;;;;;;5093992;28;20409;-79
2021/05/22 04:04:04;;;;;;;5.45;3.20;;;;;;;;;;5093802;28;20735;-85
2021/05/22 04:06:30;;;;;;;6.85;3.60;;;;;;;;;;5111723;28;20374;-87
2021/05/22 04:08:56;;;;;;;5.75;3.15;;;;;;;;;;5093601;28;20389;-84
2021/05/22 04:11:22;;;;;;;8.57;3.05;;;;;;;;;;5093576;28;20398;-83
2021/05/22 04:13:47;;;;;;;7.85;3.33;;;;;;;;;;5112069;28;20978;-84
2021/05/22 04:16:13;;;;;;;5.18;2.80;;;;;;;;;;5111703;28;20359;-80
2021/05/22 04:18:39;;;;;;;5.95;3.17;;;;;;;;;;5093519;28;20706;-80
2021/05/22 04:21:05;;;;;;;6.63;3.03;;;;;;;;;;5094246;28;20455;-81
2021/05/22 04:23:32;;;;;;;7.50;2.95;;;;;;;;;;5112159;28;20378;-79
2021/05/22 04:25:58;;;;;;;5.00;3.10;;;;;;;;;;5094104;28;20385;-86
2021/05/22 04:28:24;;;;;;;6.22;2.92;;;;;;;;;;5093323;28;20445;-80
2021/05/22 04:30:50;;;;;;;6.47;2.97;;;;;;;;;;5111539;28;20402;-85
2021/05/22 04:33:16;;;;;;;4.20;2.70;;;;;;;;;;5111801;28;20389;-81
2021/05/22 04:35:42;;;;;;;7.65;2.80;;;;;;;;;;5093405;28;20367;-81
2021/05/22 04:38:08;;;;;;;4.10;2.67;;;;;;;;;;5111671;28;20370;-84
2021/05/22 04:40:34;;;;;;;6.10;2.70;;;;;;;;;;5112321;28;20389;-83
2021/05/22 04:43:00;;;;;;;4.60;2.53;;;;;;;;;;5112368;28;20378;-82
2021/05/22 04:45:26;;;;;;;4.57;2.30;;;;;;;;;;5111372;28;20497;-84
2021/05/22 04:47:52;;;;;;;5.43;2.33;;;;;;;;;;5111787;28;20375;-80
2021/05/22 04:50:18;;;;;;;4.55;2.35;;;;;;;;;;5111466;28;20399;-80
2021/05/22 04:52:44;;;;;;;4.07;2.30;;;;;;;;;;5111539;28;20763;-84
2021/05/22 04:55:10;;;;;;;4.93;2.30;;;;;;;;;;5093516;28;20435;-84
2021/05/22 04:57:36;;;;;;;4.30;2.17;;;;;;;;;;5092812;28;20795;-84
2021/05/22 05:00:04;;;;;;;4.85;2.42;;;;;;;;;;5111670;28;20455;-84
2021/05/22 05:02:30;;;;;;;3.90;2.30;;;;;;;;;;5111188;28;20371;-86
2021/05/22 05:04:56;;;;;;;5.50;2.42;;;;;;;;;;5111668;28;20363;-83
2021/05/22 05:07:22;;;;;;;3.55;2.00;;;;;;;;;;5092872;28;20454;-84
2021/05/22 05:09:50;;;;;;;6.40;2.75;;;;;;;;;;5111780;28;20359;-86
2021/05/22 05:12:16;;;;;;;5.87;2.07;;;;;;;;;;5111131;28;20406;-83
2021/05/22 05:14:42;;;;;;;5.55;2.20;;;;;;;;;;5111154;28;20461;-86
2021/05/22 05:17:08;;;;;;;6.40;2.30;;;;;;;;;;5110694;28;20477;-86
2021/05/22 05:19:34;;;;;;;6.50;2.42;;;;;;;;;;5109522;28;20383;-84
2021/05/22 05:22:00;;;;;;;4.82;2.50;;;;;;;;;;5092249;28;20370;-80
2021/05/22 05:24:27;;;;;;;4.68;2.65;;;;;;;;;;5110143;28;20875;-84
2021/05/22 05:26:53;;;;;;;7.25;2.90;;;;;;;;;;5110470;28;20359;-83
2021/05/22 05:29:19;;;;;;;6.38;2.70;;;;;;;;;;5110266;28;20371;-82
2021/05/22 05:31:45;;;;;;;6.03;2.63;;;;;;;;;;5110599;28;20489;-80
2021/05/22 05:34:11;;;;;;;5.23;2.40;;;;;;;;;;5092891;28;20373;-82
2021/05/22 05:36:37;;;;;;;4.70;3.13;;;;;;;;;;5111776;28;20378;-85
2021/05/22 05:39:04;;;;;;;5.83;2.53;;;;;;;;;;5092002;28;20375;-78
2021/05/22 05:41:30;;;;;;;7.50;2.87;;;;;;;;;;5092166;28;20806;-82
2021/05/22 05:43:56;;;;;;;5.47;2.67;;;;;;;;;;5109621;28;20378;-81
2021/05/22 05:46:22;;;;;;;6.13;3.07;;;;;;;;;;5109841;28;20377;-85
2021/05/22 05:48:48;;;;;;;7.63;2.73;;;;;;;;;;5091725;28;20363;-87
2021/05/22 05:51:14;;;;;;;7.43;3.10;;;;;;;;;;5091500;28;20412;-86
2021/05/22 05:53:40;;;;;;;5.90;2.77;;;;;;;;;;5109650;28;20371;-83
2021/05/22 05:56:06;;;;;;;7.50;2.80;;;;;;;;;;5109608;28;20421;-87
2021/05/22 05:58:33;;;;;;;7.38;3.00;;;;;;;;;;5109470;28;20367;-80
2021/05/22 06:00:59;;;;;;;5.47;2.70;;;;;;;;;;5109497;28;20901;-86
2021/05/22 06:03:28;;;;;;;6.28;2.63;;;;;;;;;;5109705;28;20397;-84
2021/05/22 06:05:54;;;;;;;5.13;2.58;;;;;;;;;;5091593;28;20367;-82
2021/05/22 06:08:20;;;;;;;4.90;2.50;;;;;;;;;;5109872;28;20383;-82
2021/05/22 06:10:49;;;;;;;4.68;2.22;;;;;;;;;;5109803;28;20406;-85
2021/05/22 06:13:30;;;;;;;6.13;2.75;;;;;;;;;;5109651;28;20559;-83
2021/05/22 06:16:43;;;;;;;5.28;2.00;;;;;;;;;;5109664;28;20370;-81
2021/05/22 06:18:44;;;;;;;5.72;2.50;;;;;;;;;;5097895;28;20390;-86
2021/05/22 06:21:10;;;;;;;5.75;2.40;;;;;;;;;;5109922;28;20397;-80
2021/05/22 06:23:36;;;;;;;5.38;2.30;;;;;;;;;;5091550;28;20857;-86
2021/05/22 06:26:03;;;;;;;5.60;2.20;;;;;;;;;;5109290;28;20458;-81
2021/05/22 06:28:29;;;;;;;3.92;1.77;;;;;;;;;;5109352;28;20397;-84
2021/05/22 06:30:56;;;;;;;5.43;2.00;;;;;;;;;;5112592;28;20416;-86
2021/05/22 06:33:22;;;;;;;3.90;1.48;;;;;;;;;;5113059;28;20362;-82
2021/05/22 06:35:48;;;;;;;3.65;1.90;;;;;;;;;;5113085;28;20390;-82
2021/05/22 06:38:14;;;;;;;6.05;2.40;;;;;;;;;;5113097;28;20359;-85
2021/05/22 06:40:40;;;;;;;4.63;2.10;;;;;;;;;;5113236;28;20370;-84
2021/05/22 06:43:06;;;;;;;3.73;1.83;;;;;;;;;;5113446;28;20367;-86
2021/05/22 06:45:43;;;;;;;4.28;2.10;;;;;;;;;;5113262;28;20407;-85
2021/05/22 06:48:10;;;;;;;4.77;1.90;;;;;;;;;;5094909;28;20383;-84
2021/05/22 06:50:37;;;;;;;4.20;2.08;;;;;;;;;;5113239;28;20395;-83
2021/05/22 06:53:03;;;;;;;4.43;1.90;;;;;;;;;;5113346;28;20371;-84
2021/05/22 06:55:29;;;;;;;4.20;1.83;;;;;;;;;;5094152;28;20374;-84
2021/05/22 06:57:55;;;;;;;3.67;1.85;;;;;;;;;;5094800;28;20381;-81
2021/05/22 07:00:21;;;;;;;4.78;1.70;;;;;;;;;;5112675;28;20428;-82
2021/05/22 07:02:48;;;;;;;3.35;1.98;;;;;;;;;;5094810;28;20375;-78
2021/05/22 07:05:14;;;;;;;3.63;1.70;;;;;;;;;;5112798;28;20377;-83
2021/05/22 07:07:41;;;;;;;3.70;1.80;;;;;;;;;;5113013;28;20412;-81
2021/05/22 07:10:08;;;;;;;4.50;2.00;;;;;;;;;;5093997;28;20381;-84
2021/05/22 07:12:34;;;;;;;3.30;1.75;;;;;;;;;;5112710;28;20363;-83
2021/05/22 07:15:00;;;;;;;2.25;1.70;;;;;;;;;;5112599;28;20378;-84
2021/05/22 07:17:26;;;;;;;4.60;1.83;;;;;;;;;;5112335;28;20367;-85
2021/05/22 07:19:52;;;;;;;3.70;1.80;;;;;;;;;;5112203;28;20371;-84
2021/05/22 07:22:18;;;;;;;4.05;1.80;;;;;;;;;;5094639;28;20401;-81
2021/05/22 07:24:44;;;;;;;4.25;1.88;;;;;;;;;;5112215;28;20382;-82
2021/05/22 07:27:11;;;;;;;3.85;1.50;;;;;;;;;;5112506;28;20406;-84
2021/05/22 07:29:37;;;;;;;3.00;1.58;;;;;;;;;;5093809;28;20383;-84
2021/05/22 07:32:03;;;;;;;4.13;1.60;;;;;;;;;;5111660;28;20398;-81
2021/05/22 07:34:29;;;;;;;3.65;1.60;;;;;;;;;;5093428;28;20381;-85
2021/05/22 07:36:55;;;;;;;4.70;1.73;;;;;;;;;;5111831;28;20355;-82
2021/05/22 07:39:21;;;;;;;4.43;1.58;;;;;;;;;;5111363;28;20886;-84
2021/05/22 07:41:47;;;;;;;4.90;1.67;;;;;;;;;;5108822;28;20382;-84
2021/05/22 07:44:14;;;;;;;4.72;1.50;;;;;;;;;;5110636;28;20410;-84
2021/05/22 07:46:40;;;;;;;3.13;1.40;;;;;;;;;;5111387;28;20362;-81
2021/05/22 07:49:06;;;;;;;3.22;1.75;;;;;;;;;;5111489;28;20421;-84
2021/05/22 07:51:32;;;;;;;5.40;1.70;;;;;;;;;;5111410;28;20398;-87
2021/05/22 07:54:00;;;;;;;3.90;1.63;;;;;;;;;;5110659;28;20732;-85
2021/05/22 07:56:26;;;;;;;5.00;1.45;;;;;;;;;;5110738;28;20448;-84
2021/05/22 07:58:52;;;;;;;3.85;1.35;;;;;;;;;;5111307;28;20377;-87
2021/05/22 08:01:18;;;;;;;6.10;1.50;;;;;;;;;;5100911;28;20733;-84
2021/05/22 08:03:44;;;;;;;4.38;1.42;;;;;;;;;;5091618;28;20897;-85
2021/05/22 08:06:11;;;;;;;4.97;1.50;;;;;;;;;;5072274;28;20408;-87
2021/05/22 08:08:37;;;;;;;4.55;1.83;;;;;;;;;;5095821;28;21235;-88
2021/05/22 08:11:03;;;;;;;5.65;1.80;;;;;;;;;;5110942;28;20548;-83
2021/05/22 08:13:31;;;;;;;5.00;1.50;;;;;;;;;;5106028;28;20953;-84
2021/05/22 08:15:57;;;;;;;5.13;1.70;;;;;;;;;;5091303;28;20384;-87
2021/05/22 08:18:23;;;;;;;2.58;1.40;;;;;;;;;;5092735;28;20405;-87
2021/05/22 08:20:49;;;;;;;4.00;1.98;;;;;;;;;;5074227;28;20382;-82
2021/05/22 08:23:15;;;;;;;5.50;1.70;;;;;;;;;;5108600;28;20437;-85
2021/05/22 08:25:41;;;;;;;7.93;1.77;;;;;;;;;;5073640;28;20381;-82
2021/05/22 08:28:08;;;;;;;6.68;1.80;;;;;;;;;;5090984;28;20403;-81
2021/05/22 08:30:35;;;;;;;5.15;1.48;;;;;;;;;;5111690;28;20430;-82
2021/05/22 08:33:02;;;;;;;5.32;1.65;;;;;;;;;;5108152;28;20394;-83
2021/05/22 08:35:29;;;;;;;3.33;1.43;;;;;;;;;;5109672;28;20454;-80
2021/05/22 08:37:55;;;;;;;7.82;1.70;;;;;;;;;;5105356;28;20375;-82
2021/05/22 08:40:26;;;;;;;5.50;1.80;;;;;;;;;;5104408;28;20875;-79
2021/05/22 08:42:52;;;;;;;5.88;1.85;;;;;;;;;;5090974;28;20375;-82
2021/05/22 08:45:20;;;;;;;7.07;1.88;;;;;;;;;;5109082;28;20856;-80
2021/05/22 08:47:48;;;;;;;7.40;1.70;;;;;;;;;;5109085;28;20390;-79
2021/05/22 08:50:14;;;;;;;3.23;1.63;;;;;;;;;;5090891;28;20375;-79
2021/05/22 08:52:40;;;;;;;4.82;1.50;;;;;;;;;;5090735;28;20371;-80
2021/05/22 08:55:07;;;;;;;8.30;1.95;;;;;;;;;;5108312;28;20757;-83
2021/05/22 08:57:33;;;;;;;6.93;2.05;;;;;;;;;;5109073;28;20366;-83
2021/05/22 08:59:59;;;;;;;7.93;1.70;;;;;;;;;;5109530;28;20363;-83
2021/05/22 09:02:26;;;;;;;5.55;1.60;;;;;;;;;;5108359;28;20400;-82
2021/05/22 09:05:04;;;;;;;6.85;1.70;;;;;;;;;;5106481;28;20407;-85
2021/05/22 09:07:30;;;;;;;5.45;1.40;;;;;;;;;;5108031;28;20506;-82
2021/05/22 09:10:04;;;;;;;5.00;1.40;;;;;;;;;;5090143;28;20391;-83
2021/05/22 09:12:33;;;;;;;5.53;1.63;;;;;;;;;;5106262;28;20387;-85
2021/05/22 09:14:59;;;;;;;6.63;1.60;;;;;;;;;;5108139;28;20411;-84
2021/05/22 09:17:25;;;;;;;10.55;1.90;;;;;;;;;;5107371;28;20411;-82
2021/05/22 09:19:52;;;;;;;5.20;1.50;;;;;;;;;;5090194;28;20787;-82
2021/05/22 09:22:24;;;;;;;6.72;1.80;;;;;;;;;;5108798;28;20773;-81
2021/05/22 09:24:55;;;;;;;5.03;1.63;;;;;;;;;;5089933;28;20629;-85
2021/05/22 09:27:21;;;;;;;5.93;1.85;;;;;;;;;;5109859;28;20359;-85
2021/05/22 09:29:49;;;;;;;4.63;1.50;;;;;;;;;;5103247;28;20374;-81
2021/05/22 09:32:15;;;;;;;7.00;1.52;;;;;;;;;;5089294;28;20408;-83
2021/05/22 09:34:41;;;;;;;7.10;1.77;;;;;;;;;;5097462;28;20375;-86
2021/05/22 09:37:13;;;;;;;4.85;1.60;;;;;;;;;;5107688;28;20929;-83
2021/05/22 09:39:46;;;;;;;6.45;1.70;;;;;;;;;;5097954;28;20808;-84
2021/05/22 09:42:12;;;;;;;5.13;1.60;;;;;;;;;;5109538;28;20469;-81
2021/05/22 09:44:38;;;;;;;4.68;1.70;;;;;;;;;;5108538;28;20709;-86
2021/05/22 09:47:04;;;;;;;4.88;1.70;;;;;;;;;;5078584;28;20397;-79
2021/05/22 09:49:32;;;;;;;7.30;2.00;;;;;;;;;;5109964;28;20366;-82
2021/05/22 09:51:58;;;;;;;8.30;2.00;;;;;;;;;;5109193;28;20936;-84
2021/05/22 09:54:42;;;;;;;5.75;1.65;;;;;;;;;;5090775;28;20378;-84
2021/05/22 09:57:10;;;;;;;4.18;1.60;;;;;;;;;;5110132;28;20454;-81
2021/05/22 09:59:36;;;;;;;10.20;1.75;;;;;;;;;;5108825;28;20370;-83
2021/05/22 10:02:02;;;;;;;9.10;1.53;;;;;;;;;;5108494;28;20371;-80
2021/05/22 10:04:28;;;;;;;4.75;1.33;;;;;;;;;;5107486;28;20374;-82
2021/05/22 10:06:56;;;;;;;2.45;1.02;;;;;;;;;;5111597;28;20975;-82
2021/05/22 10:09:24;;;;;;;2.60;1.00;;;;;;;;;;5082755;28;20392;-80
2021/05/22 10:12:05;;;;;;;1.58;0.90;;;;;;;;;;5102135;28;20911;-83
2021/05/22 10:14:33;;;;;;;1.90;0.85;;;;;;;;;;5113358;28;20366;-83
2021/05/22 10:17:02;;;;;;;2.20;0.90;;;;;;;;;;5102821;28;20901;-81
2021/05/22 10:19:28;;;;;;;3.22;1.10;;;;;;;;;;5074314;28;20398;-83
2021/05/22 10:21:54;;;;;;;3.30;1.48;;;;;;;;;;5092362;28;20372;-78
2021/05/22 10:24:20;;;;;;;4.53;1.45;;;;;;;;;;5092761;28;20792;-80
2021/05/22 10:26:47;;;;;;;6.75;1.63;;;;;;;;;;5100140;28;20891;-79
2021/05/22 10:29:14;;;;;;;2.72;1.40;;;;;;;;;;5108267;28;20459;-82
2021/05/22 10:31:41;;;;;;;5.45;1.42;;;;;;;;;;5112688;28;20394;-85
2021/05/22 10:34:11;;;;;;;4.72;1.50;;;;;;;;;;5113304;28;20856;-83
2021/05/22 10:36:48;;;;;;;5.07;1.35;;;;;;;;;;5112969;28;20405;-81
2021/05/22 10:39:32;;;;;;;4.93;1.70;;;;;;;;;;5092184;28;20370;-80
2021/05/22 10:41:59;;;;;;;5.40;2.03;;;;;;;;;;5092208;28;20877;-80
2021/05/22 10:44:28;;;;;;;3.83;1.47;;;;;;;;;;5098294;28;20371;-80
2021/05/22 10:47:05;;;;;;;3.45;1.35;;;;;;;;;;5112789;28;20351;-85
2021/05/22 10:49:46;;;;;;;5.47;1.63;;;;;;;;;;5092030;28;20373;-80
2021/05/22 10:52:24;;;;;;;17.58;2.28;;;;;;;;;;5095339;28;20396;-80
2021/05/22 10:54:58;;;;;;;10.55;1.80;;;;;;;;;;5094101;28;20804;-80
2021/05/22 10:57:24;;;;;;;5.80;1.67;;;;;;;;;;5093761;28;20374;-81
2021/05/22 11:00:09;;;;;;;7.18;2.17;;;;;;;;;;5112172;28;20439;-83
2021/05/22 11:02:39;;;;;;;6.22;1.60;;;;;;;;;;5111530;28;20907;-80
2021/05/22 11:05:23;;;;;;;6.13;1.70;;;;;;;;;;5111460;28;20363;-80
2021/05/22 11:07:50;;;;;;;3.08;1.30;;;;;;;;;;5109104;28;20378;-80
2021/05/22 11:10:35;;;;;;;4.70;1.38;;;;;;;;;;5093061;28;20858;-85
2021/05/22 11:13:01;;;;;;;2.33;1.27;;;;;;;;;;5110243;28;20385;-86
2021/05/22 11:15:40;;;;;;;5.07;1.70;;;;;;;;;;5110859;28;20379;-85
2021/05/22 11:18:06;;;;;;;4.32;1.70;;;;;;;;;;5108369;28;20391;-84
2021/05/22 11:20:34;;;;;;;4.65;1.48;;;;;;;;;;5093268;28;20367;-82
2021/05/22 11:23:01;;;;;;;3.28;1.42;;;;;;;;;;5110800;28;20374;-84
2021/05/22 11:25:44;;;;;;;4.55;1.40;;;;;;;;;;5110123;28;20362;-84
2021/05/22 11:28:17;;;;;;;2.28;1.20;;;;;;;;;;5090698;28;20379;-81
2021/05/22 11:30:44;;;;;;;5.70;1.90;;;;;;;;;;5110272;28;20402;-83
2021/05/22 11:33:26;;;;;;;8.67;1.80;;;;;;;;;;5111139;28;20379;-80
2021/05/22 11:35:53;;;;;;;6.07;1.60;;;;;;;;;;5109894;28;20369;-84
2021/05/22 11:38:22;;;;;;;6.80;1.70;;;;;;;;;;5111311;28;20375;-79
2021/05/22 11:40:48;;;;;;;5.10;1.60;;;;;;;;;;5113328;28;20376;-83
2021/05/22 11:43:20;;;;;;;4.80;1.90;;;;;;;;;;5111676;28;20367;-80
2021/05/22 11:45:48;;;;;;;4.90;1.65;;;;;;;;;;5105409;28;20379;-83
2021/05/22 11:48:27;;;;;;;4.50;1.80;;;;;;;;;;5108254;28;20378;-79
2021/05/22 11:51:13;;;;;;;7.38;1.90;;;;;;;;;;5092284;28;20391;-82
2021/05/22 11:53:39;;;;;;;3.67;1.67;;;;;;;;;;5089737;28;20382;-83
2021/05/22 11:56:08;;;;;;;4.93;1.60;;;;;;;;;;5107052;28;20411;-83
2021/05/22 11:58:35;;;;;;;3.72;1.45;;;;;;;;;;5103883;28;20391;-79
2021/05/22 12:01:20;;;;;;;6.10;1.75;;;;;;;;;;5104392;28;20370;-82
2021/05/22 12:03:50;;;;;;;6.47;1.70;;;;;;;;;;5108133;28;20416;-82
2021/05/22 12:06:23;;;;;;;6.10;1.50;;;;;;;;;;5090224;28;20415;-83
2021/05/22 12:09:08;;;;;;;3.85;1.30;;;;;;;;;;5099284;28;21266;-82
2021/05/22 12:11:37;;;;;;;4.78;1.30;;;;;;;;;;5102610;28;20453;-81
2021/05/22 12:14:04;;;;;;;4.45;1.50;;;;;;;;;;5109665;28;20379;-81
2021/05/22 12:16:31;;;;;;;4.75;1.48;;;;;;;;;;5107268;28;20378;-81
2021/05/22 12:18:57;;;;;;;3.13;1.33;;;;;;;;;;5105152;27;20379;-83
2021/05/22 12:21:27;;;;;;;6.88;1.98;;;;;;;;;;5110963;28;20371;-82
2021/05/22 12:23:59;;;;;;;4.75;2.00;;;;;;;;;;5101061;28;20430;-81
2021/05/22 12:26:25;;;;;;;5.45;1.90;;;;;;;;;;5107015;27;20386;-83
2021/05/22 12:28:56;;;;;;;4.65;1.80;;;;;;;;;;5111579;27;20446;-84
2021/05/22 12:31:22;;;;;;;5.45;1.60;;;;;;;;;;5103375;28;20769;-86
2021/05/22 12:33:55;;;;;;;3.25;1.42;;;;;;;;;;5110502;28;20393;-82
2021/05/22 12:36:21;;;;;;;5.18;1.30;;;;;;;;;;5104847;28;20880;-84
2021/05/22 12:38:47;;;;;;;5.95;1.45;;;;;;;;;;5088051;28;20385;-82
2021/05/22 12:41:14;;;;;;;6.40;1.55;;;;;;;;;;5089346;28;20364;-85
2021/05/22 12:43:50;;;;;;;5.25;1.35;;;;;;;;;;5105019;28;20379;-86
2021/05/22 12:46:30;;;;;;;5.70;1.70;;;;;;;;;;5090806;28;20386;-83
2021/05/22 12:49:10;;;;;;;4.18;1.63;;;;;;;;;;5073603;28;20389;-82
2021/05/22 12:51:36;;;;;;;5.80;1.47;;;;;;;;;;5106388;28;20390;-86
2021/05/22 12:54:21;;;;;;;3.45;1.42;;;;;;;;;;5091898;28;20385;-83
2021/05/22 12:57:03;;;;;;;6.13;1.70;;;;;;;;;;5091346;28;20427;-84
2021/05/22 12:59:30;;;;;;;4.73;1.57;;;;;;;;;;5113066;27;20460;-84
2021/05/22 13:02:12;;;;;;;6.28;1.63;;;;;;;;;;5126919;27;20388;-85
2021/05/22 13:04:38;;;;;;;5.75;1.40;;;;;;;;;;5083723;27;20752;-83
2021/05/22 13:07:04;;;;;;;6.13;1.42;;;;;;;;;;5105683;27;20441;-89
2021/05/22 13:09:30;;;;;;;6.78;1.60;;;;;;;;;;5094509;28;20386;-84
2021/05/22 13:11:57;;;;;;;5.18;1.33;;;;;;;;;;5106423;28;20406;-81
2021/05/22 13:14:24;;;;;;;3.05;1.38;;;;;;;;;;5107593;28;20379;-83
2021/05/22 13:16:56;;;;;;;5.63;1.50;;;;;;;;;;5107634;28;20932;-83
2021/05/22 13:19:41;;;;;;;3.92;1.42;;;;;;;;;;5089359;28;20933;-86
2021/05/22 13:22:27;;;;;;;4.93;1.30;;;;;;;;;;5108437;28;20377;-87
2021/05/22 13:25:00;;;;;;;3.08;1.13;;;;;;;;;;5107735;28;20363;-81
2021/05/22 13:27:26;;;;;;;11.23;1.40;;;;;;;;;;5089845;28;20367;-79
2021/05/22 13:29:54;;;;;;;2.80;1.27;;;;;;;;;;5090760;28;20401;-87
2021/05/22 13:32:26;;;;;;;4.10;1.15;;;;;;;;;;5089760;28;20485;-81
2021/05/22 13:34:52;;;;;;;3.70;0.80;;;;;;;;;;5108294;28;20361;-86
2021/05/22 13:37:19;;;;;;;3.77;1.10;;;;;;;;;;5108034;28;20365;-86
2021/05/22 13:39:46;;;;;;;5.07;1.10;;;;;;;;;;5106703;28;20470;-83
2021/05/22 13:42:12;;;;;;;2.72;1.00;;;;;;;;;;5089173;28;20430;-81
2021/05/22 13:44:38;;;;;;;2.67;1.10;;;;;;;;;;5095516;28;21299;-81
2021/05/22 13:47:06;;;;;;;4.17;1.30;;;;;;;;;;5104528;28;20421;-81
2021/05/22 13:49:33;;;;;;;2.70;1.10;;;;;;;;;;5107242;28;21004;-83
2021/05/22 13:51:59;;;;;;;1.90;0.95;;;;;;;;;;5073342;28;20445;-84
2021/05/22 13:54:25;;;;;;;2.90;0.80;;;;;;;;;;5106134;28;20940;-85
2021/05/22 13:56:51;;;;;;;3.43;1.00;;;;;;;;;;5088614;28;20367;-81
2021/05/22 13:59:17;;;;;;;3.05;1.13;;;;;;;;;;5107693;28;20355;-88
2021/05/22 14:01:43;;;;;;;3.53;1.40;;;;;;;;;;5088109;28;21178;-83
2021/05/22 14:04:09;;;;;;;3.42;1.10;;;;;;;;;;5107825;28;20768;-84
2021/05/22 14:06:35;;;;;;;7.68;1.52;;;;;;;;;;5089020;28;20426;-85
2021/05/22 14:09:02;;;;;;;4.07;1.20;;;;;;;;;;5089787;28;20378;-84
2021/05/22 14:11:28;;;;;;;3.77;0.90;;;;;;;;;;5106368;28;20403;-88
2021/05/22 14:13:54;;;;;;;3.38;1.00;;;;;;;;;;5089066;28;20490;-87
2021/05/22 14:16:20;;;;;;;2.60;0.90;;;;;;;;;;5102473;28;20386;-84
2021/05/22 14:18:46;;;;;;;3.03;0.90;;;;;;;;;;5106485;28;20391;-79
2021/05/22 14:21:12;;;;;;;3.83;0.97;;;;;;;;;;5105233;28;20390;-82
2021/05/22 14:23:39;;;;;;;3.55;0.93;;;;;;;;;;5089747;28;20400;-86
2021/05/22 14:26:05;;;;;;;1.92;0.70;;;;;;;;;;5086644;28;20880;-83
2021/05/22 14:28:31;;;;;;;2.63;0.80;;;;;;;;;;5107463;28;20428;-83
2021/05/22 14:30:58;;;;;;;3.45;1.20;;;;;;;;;;5109873;28;20406;-82
2021/05/22 14:33:24;;;;;;;2.80;1.20;;;;;;;;;;5092469;28;21211;-83
2021/05/22 14:35:50;;;;;;;1.83;0.63;;;;;;;;;;5093977;28;20387;-87
2021/05/22 14:38:16;;;;;;;5.53;1.50;;;;;;;;;;5107971;28;20800;-85
2021/05/22 14:40:42;;;;;;;2.90;0.80;;;;;;;;;;5089852;28;20363;-87
2021/05/22 14:43:08;;;;;;;2.25;1.02;;;;;;;;;;5107868;28;20466;-82
2021/05/22 14:45:37;;;;;;;4.07;1.13;;;;;;;;;;5089551;28;20379;-83
2021/05/22 14:48:04;;;;;;;3.33;0.88;;;;;;;;;;5127671;27;20384;-85